sensor_id;sensor_type;location;lat;lon;timestamp;P1;durP1;ratioP1;P2;durP2;ratioP2
19521;SDS011;9905;52.126;5.596;2024-03-06T00:01:32;34.95;;;31.02;;
19521;SDS011;9905;52.126;5.596;2024-03-06T00:03:59;32.05;;;28.85;;
19521;SDS011;9905;52.126;5.596;2024-03-06T00:06:25;32.72;;;29.23;;
19521;SDS011;9905;52.126;5.596;2024-03-06T00:08:52;33.53;;;29.95;;
19521;SDS011;9905;52.126;5.596;2024-03-06T00:11:20;33.88;;;29.80;;
19521;SDS011;9905;52.126;5.596;2024-03-06T00:13:47;34.25;;;30.67;;
19521;SDS011;9905;52.126;5.596;2024-03-06T00:16:14;38.35;;;31.58;;
19521;SDS011;9905;52.126;5.596;2024-03-06T00:18:40;32.60;;;29.30;;
19521;SDS011;9905;52.126;5.596;2024-03-06T00:21:07;32.30;;;29.02;;
19521;SDS011;9905;52.126;5.596;2024-03-06T00:23:34;36.22;;;31.40;;
19521;SDS011;9905;52.126;5.596;2024-03-06T00:26:02;34.35;;;30.58;;
19521;SDS011;9905;52.126;5.596;2024-03-06T00:28:30;34.42;;;30.83;;
19521;SDS011;9905;52.126;5.596;2024-03-06T00:30:57;32.80;;;29.00;;
19521;SDS011;9905;52.126;5.596;2024-03-06T00:33:24;32.17;;;28.58;;
19521;SDS011;9905;52.126;5.596;2024-03-06T00:35:51;32.92;;;29.50;;
19521;SDS011;9905;52.126;5.596;2024-03-06T00:38:17;34.63;;;30.13;;
19521;SDS011;9905;52.126;5.596;2024-03-06T00:40:44;33.58;;;29.55;;
19521;SDS011;9905;52.126;5.596;2024-03-06T00:43:11;33.78;;;30.13;;
19521;SDS011;9905;52.126;5.596;2024-03-06T00:45:39;32.65;;;28.95;;
19521;SDS011;9905;52.126;5.596;2024-03-06T00:48:06;32.97;;;29.38;;
19521;SDS011;9905;52.126;5.596;2024-03-06T00:50:33;33.75;;;28.92;;
19521;SDS011;9905;52.126;5.596;2024-03-06T00:53:00;35.20;;;29.48;;
19521;SDS011;9905;52.126;5.596;2024-03-06T00:55:28;33.47;;;29.85;;
19521;SDS011;9905;52.126;5.596;2024-03-06T00:57:54;32.80;;;29.30;;
19521;SDS011;9905;52.126;5.596;2024-03-06T01:00:21;33.58;;;29.95;;
19521;SDS011;9905;52.126;5.596;2024-03-06T01:02:50;35.58;;;31.50;;
19521;SDS011;9905;52.126;5.596;2024-03-06T01:05:16;37.58;;;32.88;;
19521;SDS011;9905;52.126;5.596;2024-03-06T01:07:43;39.47;;;31.80;;
19521;SDS011;9905;52.126;5.596;2024-03-06T01:10:10;34.65;;;30.00;;
19521;SDS011;9905;52.126;5.596;2024-03-06T01:12:36;37.42;;;31.13;;
19521;SDS011;9905;52.126;5.596;2024-03-06T01:15:04;34.72;;;31.13;;
19521;SDS011;9905;52.126;5.596;2024-03-06T01:17:32;33.72;;;29.77;;
19521;SDS011;9905;52.126;5.596;2024-03-06T01:20:01;35.17;;;30.92;;
19521;SDS011;9905;52.126;5.596;2024-03-06T01:22:29;34.35;;;29.75;;
19521;SDS011;9905;52.126;5.596;2024-03-06T01:24:56;35.55;;;30.90;;
19521;SDS011;9905;52.126;5.596;2024-03-06T01:27:22;34.67;;;30.90;;
19521;SDS011;9905;52.126;5.596;2024-03-06T01:29:49;32.92;;;29.50;;
19521;SDS011;9905;52.126;5.596;2024-03-06T01:32:16;37.05;;;30.63;;
19521;SDS011;9905;52.126;5.596;2024-03-06T01:34:43;36.38;;;32.38;;
19521;SDS011;9905;52.126;5.596;2024-03-06T01:37:11;33.78;;;30.20;;
19521;SDS011;9905;52.126;5.596;2024-03-06T01:39:37;36.33;;;32.03;;
19521;SDS011;9905;52.126;5.596;2024-03-06T01:42:04;37.65;;;30.52;;
19521;SDS011;9905;52.126;5.596;2024-03-06T01:44:31;36.67;;;31.42;;
19521;SDS011;9905;52.126;5.596;2024-03-06T01:46:58;36.17;;;31.05;;
19521;SDS011;9905;52.126;5.596;2024-03-06T01:49:25;36.83;;;31.08;;
19521;SDS011;9905;52.126;5.596;2024-03-06T01:51:54;36.53;;;31.42;;
19521;SDS011;9905;52.126;5.596;2024-03-06T01:54:23;35.88;;;32.00;;
19521;SDS011;9905;52.126;5.596;2024-03-06T01:56:51;36.75;;;31.92;;
19521;SDS011;9905;52.126;5.596;2024-03-06T01:59:20;35.90;;;30.30;;
19521;SDS011;9905;52.126;5.596;2024-03-06T02:01:51;36.22;;;29.67;;
19521;SDS011;9905;52.126;5.596;2024-03-06T02:04:19;36.55;;;32.53;;
19521;SDS011;9905;52.126;5.596;2024-03-06T02:06:46;35.17;;;31.42;;
19521;SDS011;9905;52.126;5.596;2024-03-06T02:09:13;38.45;;;32.22;;
19521;SDS011;9905;52.126;5.596;2024-03-06T02:11:41;37.13;;;33.10;;
19521;SDS011;9905;52.126;5.596;2024-03-06T02:14:08;36.45;;;31.75;;
19521;SDS011;9905;52.126;5.596;2024-03-06T02:16:36;35.40;;;31.65;;
19521;SDS011;9905;52.126;5.596;2024-03-06T02:19:04;35.67;;;31.80;;
19521;SDS011;9905;52.126;5.596;2024-03-06T02:21:32;38.58;;;31.05;;
19521;SDS011;9905;52.126;5.596;2024-03-06T02:23:59;39.30;;;32.08;;
19521;SDS011;9905;52.126;5.596;2024-03-06T02:26:25;35.60;;;31.63;;
19521;SDS011;9905;52.126;5.596;2024-03-06T02:28:53;36.28;;;29.98;;
19521;SDS011;9905;52.126;5.596;2024-03-06T02:31:21;35.58;;;31.70;;
19521;SDS011;9905;52.126;5.596;2024-03-06T02:33:48;34.17;;;30.52;;
19521;SDS011;9905;52.126;5.596;2024-03-06T02:36:15;33.45;;;29.88;;
19521;SDS011;9905;52.126;5.596;2024-03-06T02:38:44;33.80;;;30.27;;
19521;SDS011;9905;52.126;5.596;2024-03-06T02:41:11;35.83;;;31.00;;
19521;SDS011;9905;52.126;5.596;2024-03-06T02:43:40;34.05;;;30.25;;
19521;SDS011;9905;52.126;5.596;2024-03-06T02:46:07;34.22;;;30.58;;
19521;SDS011;9905;52.126;5.596;2024-03-06T02:48:34;33.80;;;30.02;;
19521;SDS011;9905;52.126;5.596;2024-03-06T02:51:01;36.67;;;31.13;;
19521;SDS011;9905;52.126;5.596;2024-03-06T02:53:28;31.92;;;28.60;;
19521;SDS011;9905;52.126;5.596;2024-03-06T02:55:56;33.45;;;29.85;;
19521;SDS011;9905;52.126;5.596;2024-03-06T02:58:23;30.85;;;27.63;;
19521;SDS011;9905;52.126;5.596;2024-03-06T03:00:50;31.90;;;28.45;;
19521;SDS011;9905;52.126;5.596;2024-03-06T03:03:16;33.70;;;27.48;;
19521;SDS011;9905;52.126;5.596;2024-03-06T03:05:45;30.65;;;27.45;;
19521;SDS011;9905;52.126;5.596;2024-03-06T03:08:11;30.63;;;27.20;;
19521;SDS011;9905;52.126;5.596;2024-03-06T03:10:38;31.67;;;27.58;;
19521;SDS011;9905;52.126;5.596;2024-03-06T03:13:06;31.48;;;28.05;;
19521;SDS011;9905;52.126;5.596;2024-03-06T03:15:33;29.42;;;26.42;;
19521;SDS011;9905;52.126;5.596;2024-03-06T03:17:59;30.40;;;27.15;;
19521;SDS011;9905;52.126;5.596;2024-03-06T03:20:26;30.38;;;27.35;;
19521;SDS011;9905;52.126;5.596;2024-03-06T03:22:53;30.73;;;26.60;;
19521;SDS011;9905;52.126;5.596;2024-03-06T03:25:20;29.08;;;25.95;;
19521;SDS011;9905;52.126;5.596;2024-03-06T03:27:47;29.08;;;25.95;;
19521;SDS011;9905;52.126;5.596;2024-03-06T03:30:16;28.42;;;25.35;;
19521;SDS011;9905;52.126;5.596;2024-03-06T03:32:46;28.60;;;25.60;;
19521;SDS011;9905;52.126;5.596;2024-03-06T03:35:13;29.65;;;25.50;;
19521;SDS011;9905;52.126;5.596;2024-03-06T03:37:40;30.83;;;25.08;;
19521;SDS011;9905;52.126;5.596;2024-03-06T03:40:08;28.10;;;25.20;;
19521;SDS011;9905;52.126;5.596;2024-03-06T03:42:37;28.77;;;25.73;;
19521;SDS011;9905;52.126;5.596;2024-03-06T03:45:04;28.75;;;25.70;;
19521;SDS011;9905;52.126;5.596;2024-03-06T03:47:33;27.77;;;24.80;;
19521;SDS011;9905;52.126;5.596;2024-03-06T03:49:59;27.92;;;25.00;;
19521;SDS011;9905;52.126;5.596;2024-03-06T03:52:26;26.25;;;23.50;;
19521;SDS011;9905;52.126;5.596;2024-03-06T03:54:53;26.27;;;23.60;;
19521;SDS011;9905;52.126;5.596;2024-03-06T03:57:20;27.13;;;24.38;;
19521;SDS011;9905;52.126;5.596;2024-03-06T03:59:47;27.23;;;24.45;;
19521;SDS011;9905;52.126;5.596;2024-03-06T04:02:13;27.10;;;24.00;;
19521;SDS011;9905;52.126;5.596;2024-03-06T04:04:42;26.58;;;23.80;;
19521;SDS011;9905;52.126;5.596;2024-03-06T04:07:08;26.52;;;23.83;;
19521;SDS011;9905;52.126;5.596;2024-03-06T04:09:35;26.17;;;23.67;;
19521;SDS011;9905;52.126;5.596;2024-03-06T04:12:02;26.30;;;23.83;;
19521;SDS011;9905;52.126;5.596;2024-03-06T04:14:30;23.67;;;21.58;;
19521;SDS011;9905;52.126;5.596;2024-03-06T04:16:56;24.70;;;22.50;;
19521;SDS011;9905;52.126;5.596;2024-03-06T04:19:23;25.27;;;22.75;;
19521;SDS011;9905;52.126;5.596;2024-03-06T04:21:51;27.48;;;24.73;;
19521;SDS011;9905;52.126;5.596;2024-03-06T04:24:18;25.73;;;23.17;;
19521;SDS011;9905;52.126;5.596;2024-03-06T04:26:44;25.92;;;23.60;;
19521;SDS011;9905;52.126;5.596;2024-03-06T04:29:11;25.35;;;23.05;;
19521;SDS011;9905;52.126;5.596;2024-03-06T04:31:38;25.88;;;23.63;;
19521;SDS011;9905;52.126;5.596;2024-03-06T04:34:05;24.88;;;22.80;;
19521;SDS011;9905;52.126;5.596;2024-03-06T04:36:32;24.27;;;22.23;;
19521;SDS011;9905;52.126;5.596;2024-03-06T04:39:00;24.45;;;22.35;;
19521;SDS011;9905;52.126;5.596;2024-03-06T04:41:30;26.40;;;24.13;;
19521;SDS011;9905;52.126;5.596;2024-03-06T04:43:57;23.85;;;21.85;;
19521;SDS011;9905;52.126;5.596;2024-03-06T04:46:25;23.95;;;22.05;;
19521;SDS011;9905;52.126;5.596;2024-03-06T04:48:52;25.05;;;22.95;;
19521;SDS011;9905;52.126;5.596;2024-03-06T04:51:20;24.90;;;22.80;;
19521;SDS011;9905;52.126;5.596;2024-03-06T04:53:47;23.58;;;21.67;;
19521;SDS011;9905;52.126;5.596;2024-03-06T04:56:16;24.55;;;22.30;;
19521;SDS011;9905;52.126;5.596;2024-03-06T04:58:44;24.08;;;22.10;;
19521;SDS011;9905;52.126;5.596;2024-03-06T05:01:11;23.88;;;21.98;;
19521;SDS011;9905;52.126;5.596;2024-03-06T05:03:38;23.63;;;21.77;;
19521;SDS011;9905;52.126;5.596;2024-03-06T05:06:05;25.42;;;23.30;;
19521;SDS011;9905;52.126;5.596;2024-03-06T05:08:32;23.63;;;21.88;;
19521;SDS011;9905;52.126;5.596;2024-03-06T05:10:59;23.80;;;21.73;;
19521;SDS011;9905;52.126;5.596;2024-03-06T05:13:28;23.55;;;21.45;;
19521;SDS011;9905;52.126;5.596;2024-03-06T05:15:55;24.23;;;22.38;;
19521;SDS011;9905;52.126;5.596;2024-03-06T05:18:22;24.05;;;22.15;;
19521;SDS011;9905;52.126;5.596;2024-03-06T05:20:49;24.27;;;22.35;;
19521;SDS011;9905;52.126;5.596;2024-03-06T05:23:15;24.30;;;22.50;;
19521;SDS011;9905;52.126;5.596;2024-03-06T05:25:42;22.75;;;21.25;;
19521;SDS011;9905;52.126;5.596;2024-03-06T05:28:09;22.88;;;21.25;;
19521;SDS011;9905;52.126;5.596;2024-03-06T05:30:37;23.20;;;21.65;;
19521;SDS011;9905;52.126;5.596;2024-03-06T05:33:04;23.27;;;21.65;;
19521;SDS011;9905;52.126;5.596;2024-03-06T05:35:31;21.70;;;20.38;;
19521;SDS011;9905;52.126;5.596;2024-03-06T05:37:58;21.95;;;20.48;;
19521;SDS011;9905;52.126;5.596;2024-03-06T05:40:24;22.40;;;20.75;;
19521;SDS011;9905;52.126;5.596;2024-03-06T05:42:51;21.45;;;20.05;;
19521;SDS011;9905;52.126;5.596;2024-03-06T05:45:18;21.80;;;20.23;;
19521;SDS011;9905;52.126;5.596;2024-03-06T05:47:46;23.15;;;21.67;;
19521;SDS011;9905;52.126;5.596;2024-03-06T05:50:13;23.30;;;21.55;;
19521;SDS011;9905;52.126;5.596;2024-03-06T05:52:40;23.00;;;21.40;;
19521;SDS011;9905;52.126;5.596;2024-03-06T05:55:07;24.00;;;22.23;;
19521;SDS011;9905;52.126;5.596;2024-03-06T05:57:37;24.60;;;22.65;;
19521;SDS011;9905;52.126;5.596;2024-03-06T06:00:04;26.08;;;23.83;;
19521;SDS011;9905;52.126;5.596;2024-03-06T06:02:36;25.67;;;23.60;;
19521;SDS011;9905;52.126;5.596;2024-03-06T06:05:05;26.08;;;23.88;;
19521;SDS011;9905;52.126;5.596;2024-03-06T06:07:33;26.92;;;24.52;;
19521;SDS011;9905;52.126;5.596;2024-03-06T06:10:00;26.58;;;24.33;;
19521;SDS011;9905;52.126;5.596;2024-03-06T06:12:26;26.83;;;24.63;;
19521;SDS011;9905;52.126;5.596;2024-03-06T06:14:53;26.85;;;24.42;;
19521;SDS011;9905;52.126;5.596;2024-03-06T06:17:20;26.65;;;24.40;;
19521;SDS011;9905;52.126;5.596;2024-03-06T06:19:47;28.13;;;25.45;;
19521;SDS011;9905;52.126;5.596;2024-03-06T06:22:15;28.80;;;26.02;;
19521;SDS011;9905;52.126;5.596;2024-03-06T06:24:42;30.80;;;27.70;;
19521;SDS011;9905;52.126;5.596;2024-03-06T06:27:10;31.23;;;28.20;;
19521;SDS011;9905;52.126;5.596;2024-03-06T06:29:37;31.02;;;27.90;;
19521;SDS011;9905;52.126;5.596;2024-03-06T06:32:04;31.75;;;28.55;;
19521;SDS011;9905;52.126;5.596;2024-03-06T06:34:31;30.80;;;27.85;;
19521;SDS011;9905;52.126;5.596;2024-03-06T06:36:58;33.58;;;30.17;;
19521;SDS011;9905;52.126;5.596;2024-03-06T06:39:26;35.00;;;31.33;;
19521;SDS011;9905;52.126;5.596;2024-03-06T06:41:53;35.90;;;31.15;;
19521;SDS011;9905;52.126;5.596;2024-03-06T06:44:19;38.50;;;31.75;;
19521;SDS011;9905;52.126;5.596;2024-03-06T06:46:46;35.95;;;32.15;;
19521;SDS011;9905;52.126;5.596;2024-03-06T06:49:13;36.22;;;32.50;;
19521;SDS011;9905;52.126;5.596;2024-03-06T06:51:39;36.50;;;32.75;;
19521;SDS011;9905;52.126;5.596;2024-03-06T06:54:06;35.45;;;31.58;;
19521;SDS011;9905;52.126;5.596;2024-03-06T06:56:35;38.72;;;32.85;;
19521;SDS011;9905;52.126;5.596;2024-03-06T06:59:02;39.47;;;33.78;;
19521;SDS011;9905;52.126;5.596;2024-03-06T07:01:28;35.30;;;31.80;;
19521;SDS011;9905;52.126;5.596;2024-03-06T07:03:55;37.53;;;33.03;;
19521;SDS011;9905;52.126;5.596;2024-03-06T07:06:22;37.95;;;34.10;;
19521;SDS011;9905;52.126;5.596;2024-03-06T07:08:48;40.97;;;34.28;;
19521;SDS011;9905;52.126;5.596;2024-03-06T07:11:16;38.53;;;34.40;;
19521;SDS011;9905;52.126;5.596;2024-03-06T07:13:44;41.28;;;36.47;;
19521;SDS011;9905;52.126;5.596;2024-03-06T07:16:11;39.17;;;35.05;;
19521;SDS011;9905;52.126;5.596;2024-03-06T07:18:39;39.28;;;34.20;;
19521;SDS011;9905;52.126;5.596;2024-03-06T07:21:06;38.42;;;33.47;;
19521;SDS011;9905;52.126;5.596;2024-03-06T07:23:33;39.90;;;34.20;;
19521;SDS011;9905;52.126;5.596;2024-03-06T07:26:00;40.35;;;35.28;;
19521;SDS011;9905;52.126;5.596;2024-03-06T07:28:26;43.33;;;37.28;;
19521;SDS011;9905;52.126;5.596;2024-03-06T07:30:54;41.70;;;35.67;;
19521;SDS011;9905;52.126;5.596;2024-03-06T07:33:21;43.88;;;37.33;;
19521;SDS011;9905;52.126;5.596;2024-03-06T07:35:48;42.67;;;38.13;;
19521;SDS011;9905;52.126;5.596;2024-03-06T07:38:15;45.88;;;38.35;;
19521;SDS011;9905;52.126;5.596;2024-03-06T07:40:41;44.65;;;38.40;;
19521;SDS011;9905;52.126;5.596;2024-03-06T07:43:08;50.08;;;41.90;;
19521;SDS011;9905;52.126;5.596;2024-03-06T07:45:36;46.95;;;40.30;;
19521;SDS011;9905;52.126;5.596;2024-03-06T07:48:05;51.95;;;41.50;;
19521;SDS011;9905;52.126;5.596;2024-03-06T07:50:32;52.25;;;40.40;;
19521;SDS011;9905;52.126;5.596;2024-03-06T07:52:58;55.67;;;41.85;;
19521;SDS011;9905;52.126;5.596;2024-03-06T07:55:26;54.55;;;42.10;;
19521;SDS011;9905;52.126;5.596;2024-03-06T07:57:52;50.13;;;42.78;;
19521;SDS011;9905;52.126;5.596;2024-03-06T08:00:19;55.08;;;42.80;;
19521;SDS011;9905;52.126;5.596;2024-03-06T08:02:47;63.55;;;44.97;;
19521;SDS011;9905;52.126;5.596;2024-03-06T08:05:16;62.15;;;45.85;;
19521;SDS011;9905;52.126;5.596;2024-03-06T08:07:45;58.60;;;44.78;;
19521;SDS011;9905;52.126;5.596;2024-03-06T08:10:13;64.82;;;47.53;;
19521;SDS011;9905;52.126;5.596;2024-03-06T08:12:42;56.42;;;44.78;;
19521;SDS011;9905;52.126;5.596;2024-03-06T08:15:10;70.07;;;49.78;;
19521;SDS011;9905;52.126;5.596;2024-03-06T08:17:38;71.72;;;51.10;;
19521;SDS011;9905;52.126;5.596;2024-03-06T08:20:07;74.20;;;51.85;;
19521;SDS011;9905;52.126;5.596;2024-03-06T08:22:38;89.80;;;56.85;;
19521;SDS011;9905;52.126;5.596;2024-03-06T08:25:06;85.07;;;55.78;;
19521;SDS011;9905;52.126;5.596;2024-03-06T08:27:34;79.05;;;51.97;;
19521;SDS011;9905;52.126;5.596;2024-03-06T08:30:01;88.18;;;57.65;;
19521;SDS011;9905;52.126;5.596;2024-03-06T08:32:29;93.50;;;56.83;;
19521;SDS011;9905;52.126;5.596;2024-03-06T08:34:56;90.50;;;58.30;;
19521;SDS011;9905;52.126;5.596;2024-03-06T08:37:23;88.10;;;55.00;;
19521;SDS011;9905;52.126;5.596;2024-03-06T08:39:52;88.28;;;58.65;;
19521;SDS011;9905;52.126;5.596;2024-03-06T08:42:18;93.18;;;59.10;;
19521;SDS011;9905;52.126;5.596;2024-03-06T08:44:45;92.05;;;56.40;;
19521;SDS011;9905;52.126;5.596;2024-03-06T08:47:12;87.97;;;55.00;;
19521;SDS011;9905;52.126;5.596;2024-03-06T08:49:39;88.03;;;55.80;;
19521;SDS011;9905;52.126;5.596;2024-03-06T08:52:06;78.22;;;52.47;;
19521;SDS011;9905;52.126;5.596;2024-03-06T08:54:34;80.72;;;53.97;;
19521;SDS011;9905;52.126;5.596;2024-03-06T08:57:03;85.03;;;53.80;;
19521;SDS011;9905;52.126;5.596;2024-03-06T08:59:30;76.97;;;50.70;;
19521;SDS011;9905;52.126;5.596;2024-03-06T09:01:58;75.50;;;50.42;;
19521;SDS011;9905;52.126;5.596;2024-03-06T09:04:37;75.20;;;49.83;;
19521;SDS011;9905;52.126;5.596;2024-03-06T09:07:04;73.78;;;49.28;;
19521;SDS011;9905;52.126;5.596;2024-03-06T09:09:31;79.80;;;50.55;;
19521;SDS011;9905;52.126;5.596;2024-03-06T09:11:58;79.78;;;51.15;;
19521;SDS011;9905;52.126;5.596;2024-03-06T09:14:27;82.82;;;51.70;;
19521;SDS011;9905;52.126;5.596;2024-03-06T09:16:53;81.35;;;52.70;;
19521;SDS011;9905;52.126;5.596;2024-03-06T09:19:20;89.95;;;52.00;;
19521;SDS011;9905;52.126;5.596;2024-03-06T09:21:47;88.85;;;53.17;;
19521;SDS011;9905;52.126;5.596;2024-03-06T09:24:14;72.45;;;52.13;;
19521;SDS011;9905;52.126;5.596;2024-03-06T09:26:41;73.00;;;50.15;;
19521;SDS011;9905;52.126;5.596;2024-03-06T09:29:08;80.40;;;49.95;;
19521;SDS011;9905;52.126;5.596;2024-03-06T09:31:38;75.30;;;50.70;;
19521;SDS011;9905;52.126;5.596;2024-03-06T09:34:05;78.90;;;51.03;;
19521;SDS011;9905;52.126;5.596;2024-03-06T09:36:32;79.25;;;50.45;;
19521;SDS011;9905;52.126;5.596;2024-03-06T09:38:59;72.45;;;50.28;;
19521;SDS011;9905;52.126;5.596;2024-03-06T09:41:26;71.30;;;50.13;;
19521;SDS011;9905;52.126;5.596;2024-03-06T09:43:53;70.57;;;51.53;;
19521;SDS011;9905;52.126;5.596;2024-03-06T09:46:20;66.18;;;48.17;;
19521;SDS011;9905;52.126;5.596;2024-03-06T09:48:49;68.88;;;47.47;;
19521;SDS011;9905;52.126;5.596;2024-03-06T09:51:17;67.85;;;49.65;;
19521;SDS011;9905;52.126;5.596;2024-03-06T09:53:45;75.97;;;49.55;;
19521;SDS011;9905;52.126;5.596;2024-03-06T09:56:14;69.25;;;49.58;;
19521;SDS011;9905;52.126;5.596;2024-03-06T09:58:41;74.50;;;49.58;;
19521;SDS011;9905;52.126;5.596;2024-03-06T10:01:08;67.80;;;49.60;;
19521;SDS011;9905;52.126;5.596;2024-03-06T10:03:37;74.25;;;50.75;;
19521;SDS011;9905;52.126;5.596;2024-03-06T10:06:07;67.25;;;47.05;;
19521;SDS011;9905;52.126;5.596;2024-03-06T10:08:33;72.75;;;48.60;;
19521;SDS011;9905;52.126;5.596;2024-03-06T10:11:00;67.20;;;46.55;;
19521;SDS011;9905;52.126;5.596;2024-03-06T10:13:27;68.93;;;46.55;;
19521;SDS011;9905;52.126;5.596;2024-03-06T10:15:57;68.57;;;47.42;;
19521;SDS011;9905;52.126;5.596;2024-03-06T10:18:26;63.88;;;44.35;;
19521;SDS011;9905;52.126;5.596;2024-03-06T10:20:53;63.80;;;46.20;;
19521;SDS011;9905;52.126;5.596;2024-03-06T10:23:22;69.20;;;47.20;;
19521;SDS011;9905;52.126;5.596;2024-03-06T10:25:49;61.17;;;42.10;;
19521;SDS011;9905;52.126;5.596;2024-03-06T10:28:17;60.10;;;41.58;;
19521;SDS011;9905;52.126;5.596;2024-03-06T10:30:45;55.63;;;41.78;;
19521;SDS011;9905;52.126;5.596;2024-03-06T10:33:13;58.30;;;41.70;;
19521;SDS011;9905;52.126;5.596;2024-03-06T10:35:42;53.92;;;41.47;;
19521;SDS011;9905;52.126;5.596;2024-03-06T10:38:10;58.00;;;40.47;;
19521;SDS011;9905;52.126;5.596;2024-03-06T10:40:40;49.00;;;38.33;;
19521;SDS011;9905;52.126;5.596;2024-03-06T10:43:07;49.67;;;38.78;;
19521;SDS011;9905;52.126;5.596;2024-03-06T10:45:39;48.28;;;38.60;;
19521;SDS011;9905;52.126;5.596;2024-03-06T10:48:08;47.40;;;35.70;;
19521;SDS011;9905;52.126;5.596;2024-03-06T10:50:36;51.33;;;37.85;;
19521;SDS011;9905;52.126;5.596;2024-03-06T10:53:06;45.85;;;36.92;;
19521;SDS011;9905;52.126;5.596;2024-03-06T10:55:35;44.88;;;34.13;;
19521;SDS011;9905;52.126;5.596;2024-03-06T10:58:03;42.00;;;35.53;;
19521;SDS011;9905;52.126;5.596;2024-03-06T11:00:34;42.28;;;32.92;;
19521;SDS011;9905;52.126;5.596;2024-03-06T11:03:03;38.60;;;33.10;;
19521;SDS011;9905;52.126;5.596;2024-03-06T11:05:34;37.25;;;31.92;;
19521;SDS011;9905;52.126;5.596;2024-03-06T11:08:02;35.05;;;29.67;;
19521;SDS011;9905;52.126;5.596;2024-03-06T11:10:30;31.48;;;27.48;;
19521;SDS011;9905;52.126;5.596;2024-03-06T11:12:58;32.38;;;28.00;;
19521;SDS011;9905;52.126;5.596;2024-03-06T11:15:26;32.78;;;27.55;;
19521;SDS011;9905;52.126;5.596;2024-03-06T11:17:53;31.75;;;27.20;;
19521;SDS011;9905;52.126;5.596;2024-03-06T11:20:20;30.77;;;27.45;;
19521;SDS011;9905;52.126;5.596;2024-03-06T11:23:03;33.00;;;25.75;;
19521;SDS011;9905;52.126;5.596;2024-03-06T11:28:23;28.52;;;25.48;;
19521;SDS011;9905;52.126;5.596;2024-03-06T11:30:55;29.17;;;26.10;;
19521;SDS011;9905;52.126;5.596;2024-03-06T11:33:24;30.60;;;25.95;;
19521;SDS011;9905;52.126;5.596;2024-03-06T11:38:42;27.52;;;24.58;;
19521;SDS011;9905;52.126;5.596;2024-03-06T11:41:09;28.92;;;24.08;;
19521;SDS011;9905;52.126;5.596;2024-03-06T11:43:41;30.02;;;23.98;;
19521;SDS011;9905;52.126;5.596;2024-03-06T11:46:10;26.17;;;23.45;;
19521;SDS011;9905;52.126;5.596;2024-03-06T11:48:37;27.48;;;23.15;;
19521;SDS011;9905;52.126;5.596;2024-03-06T11:51:04;25.55;;;22.88;;
19521;SDS011;9905;52.126;5.596;2024-03-06T11:53:33;23.13;;;20.52;;
19521;SDS011;9905;52.126;5.596;2024-03-06T11:56:01;24.27;;;21.17;;
19521;SDS011;9905;52.126;5.596;2024-03-06T11:58:32;25.70;;;22.45;;
19521;SDS011;9905;52.126;5.596;2024-03-06T12:00:59;24.67;;;21.75;;
19521;SDS011;9905;52.126;5.596;2024-03-06T12:03:27;23.85;;;21.27;;
19521;SDS011;9905;52.126;5.596;2024-03-06T12:05:54;22.85;;;20.40;;
19521;SDS011;9905;52.126;5.596;2024-03-06T12:08:21;24.35;;;20.10;;
19521;SDS011;9905;52.126;5.596;2024-03-06T12:10:48;26.02;;;21.05;;
19521;SDS011;9905;52.126;5.596;2024-03-06T12:13:16;21.85;;;19.55;;
19521;SDS011;9905;52.126;5.596;2024-03-06T12:15:46;24.23;;;19.83;;
19521;SDS011;9905;52.126;5.596;2024-03-06T12:18:12;21.33;;;19.08;;
19521;SDS011;9905;52.126;5.596;2024-03-06T12:20:44;22.52;;;18.00;;
19521;SDS011;9905;52.126;5.596;2024-03-06T12:23:18;20.38;;;18.23;;
19521;SDS011;9905;52.126;5.596;2024-03-06T12:25:47;21.30;;;19.08;;
19521;SDS011;9905;52.126;5.596;2024-03-06T12:28:13;21.73;;;18.52;;
19521;SDS011;9905;52.126;5.596;2024-03-06T12:30:41;19.58;;;17.60;;
19521;SDS011;9905;52.126;5.596;2024-03-06T12:33:09;20.67;;;17.92;;
19521;SDS011;9905;52.126;5.596;2024-03-06T12:35:39;18.42;;;16.52;;
19521;SDS011;9905;52.126;5.596;2024-03-06T12:38:12;18.25;;;16.38;;
19521;SDS011;9905;52.126;5.596;2024-03-06T12:40:40;16.83;;;15.23;;
19521;SDS011;9905;52.126;5.596;2024-03-06T12:43:07;21.45;;;15.73;;
19521;SDS011;9905;52.126;5.596;2024-03-06T12:45:35;16.10;;;14.50;;
19521;SDS011;9905;52.126;5.596;2024-03-06T12:48:02;17.08;;;15.38;;
19521;SDS011;9905;52.126;5.596;2024-03-06T12:50:31;16.52;;;14.95;;
19521;SDS011;9905;52.126;5.596;2024-03-06T12:52:58;16.77;;;15.18;;
19521;SDS011;9905;52.126;5.596;2024-03-06T12:55:26;17.02;;;15.35;;
19521;SDS011;9905;52.126;5.596;2024-03-06T12:57:53;16.88;;;15.07;;
19521;SDS011;9905;52.126;5.596;2024-03-06T13:00:19;19.75;;;15.77;;
19521;SDS011;9905;52.126;5.596;2024-03-06T13:02:46;15.73;;;14.23;;
19521;SDS011;9905;52.126;5.596;2024-03-06T13:05:13;15.52;;;14.02;;
19521;SDS011;9905;52.126;5.596;2024-03-06T13:07:40;14.15;;;12.70;;
19521;SDS011;9905;52.126;5.596;2024-03-06T13:10:09;14.02;;;12.75;;
19521;SDS011;9905;52.126;5.596;2024-03-06T13:12:37;15.55;;;13.95;;
19521;SDS011;9905;52.126;5.596;2024-03-06T13:15:05;15.68;;;14.20;;
19521;SDS011;9905;52.126;5.596;2024-03-06T13:17:33;14.18;;;12.77;;
19521;SDS011;9905;52.126;5.596;2024-03-06T13:19:59;14.45;;;13.00;;
19521;SDS011;9905;52.126;5.596;2024-03-06T13:22:27;12.80;;;11.60;;
19521;SDS011;9905;52.126;5.596;2024-03-06T13:24:53;13.82;;;12.50;;
19521;SDS011;9905;52.126;5.596;2024-03-06T13:27:22;12.73;;;11.23;;
19521;SDS011;9905;52.126;5.596;2024-03-06T13:29:50;12.05;;;10.88;;
19521;SDS011;9905;52.126;5.596;2024-03-06T13:32:17;12.40;;;11.10;;
19521;SDS011;9905;52.126;5.596;2024-03-06T13:34:44;12.02;;;10.60;;
19521;SDS011;9905;52.126;5.596;2024-03-06T13:37:10;12.48;;;10.90;;
19521;SDS011;9905;52.126;5.596;2024-03-06T13:39:37;12.13;;;11.07;;
19521;SDS011;9905;52.126;5.596;2024-03-06T13:42:05;11.23;;;10.32;;
19521;SDS011;9905;52.126;5.596;2024-03-06T13:44:33;11.07;;;10.07;;
19521;SDS011;9905;52.126;5.596;2024-03-06T13:47:01;10.23;;;9.40;;
19521;SDS011;9905;52.126;5.596;2024-03-06T13:49:34;10.93;;;10.00;;
19521;SDS011;9905;52.126;5.596;2024-03-06T13:52:05;11.55;;;10.45;;
19521;SDS011;9905;52.126;5.596;2024-03-06T13:54:34;12.40;;;11.15;;
19521;SDS011;9905;52.126;5.596;2024-03-06T13:57:01;12.82;;;11.52;;
19521;SDS011;9905;52.126;5.596;2024-03-06T13:59:28;11.88;;;10.88;;
19521;SDS011;9905;52.126;5.596;2024-03-06T14:01:56;10.90;;;9.98;;
19521;SDS011;9905;52.126;5.596;2024-03-06T14:04:25;11.40;;;10.20;;
19521;SDS011;9905;52.126;5.596;2024-03-06T14:06:52;12.13;;;11.02;;
19521;SDS011;9905;52.126;5.596;2024-03-06T14:09:19;11.70;;;10.70;;
19521;SDS011;9905;52.126;5.596;2024-03-06T14:11:48;11.30;;;10.10;;
19521;SDS011;9905;52.126;5.596;2024-03-06T14:14:15;12.63;;;10.80;;
19521;SDS011;9905;52.126;5.596;2024-03-06T14:16:42;11.48;;;10.38;;
19521;SDS011;9905;52.126;5.596;2024-03-06T14:19:09;12.18;;;10.98;;
19521;SDS011;9905;52.126;5.596;2024-03-06T14:21:38;11.68;;;10.48;;
19521;SDS011;9905;52.126;5.596;2024-03-06T14:24:05;11.55;;;10.35;;
19521;SDS011;9905;52.126;5.596;2024-03-06T14:26:32;12.57;;;10.93;;
19521;SDS011;9905;52.126;5.596;2024-03-06T14:28:59;12.50;;;10.57;;
19521;SDS011;9905;52.126;5.596;2024-03-06T14:31:26;15.43;;;11.48;;
19521;SDS011;9905;52.126;5.596;2024-03-06T14:33:53;11.95;;;10.85;;
19521;SDS011;9905;52.126;5.596;2024-03-06T14:36:20;15.45;;;11.30;;
19521;SDS011;9905;52.126;5.596;2024-03-06T14:38:51;12.45;;;10.73;;
19521;SDS011;9905;52.126;5.596;2024-03-06T14:41:18;11.57;;;10.32;;
19521;SDS011;9905;52.126;5.596;2024-03-06T14:43:47;12.38;;;11.07;;